Time;durP1;ratioP1;P1;durP2;ratioP2;P2;SDS_P1;SDS_P2;PMS_P1;PMS_P2;Temp;Humidity;BMP_temperature;BMP_pressure;BME280_temperature;BME280_humidity;BME280_pressure;Samples;Min_cycle;Max_cycle;Signal;HPM_P1;HPM_P2
2023/08/09 00:00:16;;;;;;;774.83;712.20;;;;;;;16.72;87.14;99409.72;5042717;28;20087;-71
2023/08/09 00:02:41;;;;;;;1015.42;934.03;;;;;;;16.65;87.81;99410.97;5042912;28;20458;-72
2023/08/09 00:05:07;;;;;;;911.63;837.40;;;;;;;16.75;87.35;99411.81;5042589;28;20159;-71
2023/08/09 00:07:32;;;;;;;646.13;598.67;;;;;;;16.74;87.25;99411.00;5043066;28;20037;-71
2023/08/09 00:09:57;;;;;;;818.65;754.80;;;;;;;16.72;87.47;99404.22;5042594;28;20071;-72
2023/08/09 00:12:23;;;;;;;512.60;479.60;;;;;;;16.68;87.89;99415.84;5042265;28;20578;-72
2023/08/09 00:14:48;;;;;;;899.23;826.80;;;;;;;16.64;87.75;99412.09;5042301;28;20361;-71
2023/08/09 00:17:13;;;;;;;933.47;852.80;;;;;;;16.57;87.85;99419.97;5042492;28;21025;-71
2023/08/09 00:19:38;;;;;;;963.70;873.05;;;;;;;16.59;88.50;99431.50;5042965;28;20723;-72
2023/08/09 00:22:04;;;;;;;573.17;533.53;;;;;;;16.70;88.54;99454.03;5042220;28;20029;-71
2023/08/09 00:24:29;;;;;;;949.35;870.60;;;;;;;16.44;87.71;99446.41;5042020;28;20067;-72
2023/08/09 00:26:54;;;;;;;685.83;635.22;;;;;;;16.36;87.42;99442.47;5033157;28;20028;-72
2023/08/09 00:29:20;;;;;;;824.45;761.00;;;;;;;16.44;86.56;99439.00;5042540;28;20119;-72
2023/08/09 00:31:45;;;;;;;439.90;413.73;;;;;;;16.35;86.92;99446.38;5042243;28;20707;-72
2023/08/09 00:34:10;;;;;;;423.03;398.40;;;;;;;16.58;86.71;99446.34;5042209;28;20036;-72
2023/08/09 00:36:36;;;;;;;427.42;402.50;;;;;;;16.66;85.90;99445.59;5042421;28;20258;-73
2023/08/09 00:39:05;;;;;;;417.33;392.85;;;;;;;16.82;85.06;99450.72;5041953;28;20025;-73
2023/08/09 00:41:31;;;;;;;1025.68;935.50;;;;;;;16.59;84.91;99464.50;5042654;28;20024;-73
2023/08/09 00:43:56;;;;;;;669.55;621.33;;;;;;;16.48;85.71;99479.63;5041862;28;20048;-71
2023/08/09 00:46:22;;;;;;;501.90;470.63;;;;;;;16.61;85.46;99489.78;5042052;28;20040;-71
2023/08/09 00:48:47;;;;;;;607.63;566.17;;;;;;;16.60;85.42;99485.38;5042076;28;20293;-72
2023/08/09 00:51:12;;;;;;;622.38;577.13;;;;;;;16.55;85.24;99488.28;5042404;28;20045;-72
2023/08/09 00:53:38;;;;;;;475.42;446.52;;;;;;;16.68;85.07;99481.88;5041826;28;20383;-72
2023/08/09 00:56:04;;;;;;;455.95;429.17;;;;;;;16.81;84.69;99487.63;5042341;28;20506;-72
2023/08/09 00:58:29;;;;;;;454.48;427.20;;;;;;;16.80;84.58;99486.03;5041991;28;20044;-72
2023/08/09 01:00:54;;;;;;;448.90;421.77;;;;;;;16.71;84.84;99485.97;5041673;28;20037;-72
2023/08/09 01:03:20;;;;;;;492.33;459.92;;;;;;;16.83;84.32;99485.38;5041180;28;20277;-73
2023/08/09 01:05:53;;;;;;;423.58;399.10;;;;;;;16.90;83.73;99484.94;5041589;28;20060;-71
2023/08/09 01:08:26;;;;;;;487.70;456.77;;;;;;;16.88;83.84;99482.50;5041405;28;20060;-71
2023/08/09 01:11:18;;;;;;;583.35;541.08;;;;;;;16.94;83.45;99485.13;5042046;28;20044;-72
2023/08/09 01:13:44;;;;;;;493.58;462.77;;;;;;;16.91;83.24;99483.81;5041181;28;20045;-71
2023/08/09 01:16:11;;;;;;;528.13;492.75;;;;;;;16.82;83.63;99483.75;5041759;28;20060;-72
2023/08/09 01:18:38;;;;;;;536.00;500.08;;;;;;;16.82;83.56;99472.72;5041295;28;20742;-72
2023/08/09 01:21:03;;;;;;;547.67;511.38;;;;;;;16.89;83.63;99489.63;5041416;28;20027;-71
2023/08/09 01:23:36;;;;;;;536.10;499.70;;;;;;;16.99;82.53;99504.25;5042328;28;20028;-71
2023/08/09 01:26:04;;;;;;;438.30;411.48;;;;;;;16.99;82.78;99504.25;5045565;28;20079;-71
2023/08/09 01:28:30;;;;;;;531.88;495.13;;;;;;;16.98;82.80;99502.66;5045604;28;20398;-71
2023/08/09 01:30:55;;;;;;;517.47;483.70;;;;;;;17.01;82.51;99507.50;5046552;28;20036;-76
2023/08/09 01:33:20;;;;;;;588.37;545.57;;;;;;;17.01;82.60;99496.50;5045501;28;20075;-75
2023/08/09 01:36:23;;;;;;;628.55;581.95;;;;;;;16.96;82.21;99493.88;5046269;28;20266;-75
2023/08/09 01:38:57;;;;;;;550.53;510.90;;;;;;;16.90;82.56;99495.97;4983083;28;20038;-75
2023/08/09 01:41:22;;;;;;;538.50;501.40;;;;;;;16.90;82.82;99496.75;5037289;28;20533;-75
2023/08/09 01:43:49;;;;;;;497.75;463.70;;;;;;;16.89;82.51;99500.66;5045260;28;20040;-76
2023/08/09 01:46:14;;;;;;;444.48;415.45;;;;;;;16.84;82.41;99508.22;5045221;28;20032;-75
2023/08/09 01:48:40;;;;;;;425.17;397.98;;;;;;;16.78;83.06;99507.53;5045777;28;20047;-75
2023/08/09 01:51:05;;;;;;;717.03;662.88;;;;;;;16.83;83.14;99507.41;5045826;28;20536;-76
2023/08/09 01:53:31;;;;;;;759.13;700.53;;;;;;;16.89;83.02;99499.81;5045121;28;20056;-75
2023/08/09 01:55:56;;;;;;;916.83;843.30;;;;;;;16.92;82.64;99515.72;5045513;28;20094;-76
2023/08/09 01:58:21;;;;;;;855.15;789.15;;;;;;;16.93;82.66;99525.59;5045736;28;20701;-75
2023/08/09 02:00:46;;;;;;;832.35;768.92;;;;;;;16.89;83.13;99536.44;5045956;28;20055;-76
2023/08/09 02:03:12;;;;;;;769.33;708.00;;;;;;;16.92;82.68;99546.03;5045708;28;20049;-76
2023/08/09 02:05:38;;;;;;;954.72;876.35;;;;;;;16.92;82.97;99557.81;5044891;28;20266;-76
2023/08/09 02:08:04;;;;;;;831.20;767.03;;;;;;;16.97;82.79;99536.78;5045479;28;20040;-75
2023/08/09 02:10:30;;;;;;;929.85;856.80;;;;;;;16.96;82.73;99533.25;5045125;28;20033;-75
2023/08/09 02:12:55;;;;;;;927.17;853.90;;;;;;;16.97;82.42;99523.84;5045136;28;20021;-76
2023/08/09 02:15:21;;;;;;;869.13;802.97;;;;;;;16.99;82.43;99527.09;5044721;28;20090;-75
2023/08/09 02:17:48;;;;;;;502.45;469.10;;;;;;;17.04;82.34;99517.91;5045134;28;20315;-75
2023/08/09 02:20:14;;;;;;;479.38;448.10;;;;;;;17.04;82.03;99512.41;5044961;28;20061;-75
2023/08/09 02:22:40;;;;;;;477.50;447.27;;;;;;;16.96;82.17;99513.97;5045182;28;20105;-75
2023/08/09 02:25:07;;;;;;;515.90;481.80;;;;;;;16.94;82.41;99529.19;5044550;28;20135;-75
2023/08/09 02:27:33;;;;;;;430.90;404.27;;;;;;;16.93;82.42;99522.84;5045365;28;20195;-75
2023/08/09 02:29:58;;;;;;;511.33;476.90;;;;;;;16.88;82.79;99526.53;5045254;28;20056;-76
2023/08/09 02:32:24;;;;;;;499.60;466.08;;;;;;;16.86;82.98;99528.78;5044638;28;20083;-75
2023/08/09 02:34:49;;;;;;;546.97;509.42;;;;;;;16.83;82.77;99534.94;5044122;28;20044;-75
2023/08/09 02:37:14;;;;;;;558.70;520.72;;;;;;;16.82;82.74;99549.81;5044403;28;20406;-75
2023/08/09 02:39:40;;;;;;;455.15;425.67;;;;;;;16.86;82.65;99550.81;5045183;28;20041;-71
2023/08/09 02:42:05;;;;;;;600.00;557.40;;;;;;;16.86;83.18;99548.06;5043915;28;20052;-71
2023/08/09 02:44:32;;;;;;;659.20;612.43;;;;;;;16.90;82.93;99551.81;5044331;28;21291;-72
2023/08/09 02:46:58;;;;;;;606.97;565.17;;;;;;;16.91;82.59;99547.94;5044229;28;20276;-71
2023/08/09 02:49:23;;;;;;;522.97;489.05;;;;;;;16.89;82.64;99539.19;5044724;28;20663;-72
2023/08/09 02:51:48;;;;;;;527.13;490.85;;;;;;;16.94;82.77;99537.44;5043873;28;20770;-71
2023/08/09 02:54:14;;;;;;;543.57;507.70;;;;;;;16.97;82.73;99531.28;5044011;28;20051;-71
2023/08/09 02:56:39;;;;;;;522.33;488.83;;;;;;;16.94;82.53;99531.94;5043699;28;20254;-72
2023/08/09 02:59:04;;;;;;;638.65;594.20;;;;;;;16.91;81.96;99542.44;5044243;28;20288;-72
2023/08/09 03:01:30;;;;;;;522.50;488.52;;;;;;;16.88;82.20;99545.03;5044531;28;20522;-74
2023/08/09 03:03:55;;;;;;;473.05;442.08;;;;;;;16.73;82.59;99551.69;5043310;28;20081;-72
2023/08/09 03:06:22;;;;;;;496.10;464.10;;;;;;;16.72;82.58;99550.88;5043567;28;20072;-71
2023/08/09 03:08:48;;;;;;;574.78;534.92;;;;;;;16.68;82.26;99550.69;5043722;28;20033;-72
2023/08/09 03:11:14;;;;;;;542.28;505.35;;;;;;;16.69;82.69;99557.00;5043803;28;20033;-71
2023/08/09 03:13:40;;;;;;;667.88;616.58;;;;;;;16.66;81.71;99561.19;5042703;28;20488;-72
2023/08/09 03:16:05;;;;;;;585.85;544.20;;;;;;;16.49;81.55;99567.38;5043750;28;20131;-72
2023/08/09 03:18:31;;;;;;;461.23;431.98;;;;;;;16.45;81.71;99567.16;5043158;28;20545;-71
2023/08/09 03:20:57;;;;;;;530.08;493.85;;;;;;;16.42;81.47;99576.03;5043419;28;20482;-74
2023/08/09 03:23:22;;;;;;;619.13;575.38;;;;;;;16.40;81.74;99583.78;5043307;28;20129;-71
2023/08/09 03:25:48;;;;;;;326.30;307.25;;;;;;;16.44;82.02;99592.22;5043463;28;20468;-71
2023/08/09 03:28:13;;;;;;;362.60;341.38;;;;;;;16.45;82.16;99589.16;5043737;28;20770;-71
2023/08/09 03:30:38;;;;;;;409.20;384.40;;;;;;;16.45;82.35;99580.91;5043679;28;20174;-71
2023/08/09 03:33:04;;;;;;;563.17;523.55;;;;;;;16.32;82.26;99576.25;5043144;28;20816;-72
2023/08/09 03:35:29;;;;;;;643.83;597.88;;;;;;;16.33;81.93;99577.91;5043147;28;20033;-71
2023/08/09 03:37:55;;;;;;;691.17;641.17;;;;;;;16.31;81.87;99583.69;5043221;28;20101;-71
2023/08/09 03:40:20;;;;;;;591.70;549.45;;;;;;;16.20;81.74;99588.59;5042881;28;20033;-71
2023/08/09 03:42:45;;;;;;;480.23;449.00;;;;;;;16.17;82.34;99586.47;5043524;28;20037;-71
2023/08/09 03:45:10;;;;;;;445.05;415.60;;;;;;;16.17;82.68;99591.16;5043062;28;20059;-71
2023/08/09 03:47:36;;;;;;;414.20;388.63;;;;;;;16.23;82.94;99595.44;5042821;28;20044;-71
2023/08/09 03:50:04;;;;;;;430.65;402.55;;;;;;;16.29;83.08;99596.13;5043105;28;20036;-72
2023/08/09 03:52:30;;;;;;;433.65;403.75;;;;;;;16.39;82.97;99601.44;5043104;28;20029;-71
2023/08/09 03:54:56;;;;;;;527.03;490.33;;;;;;;16.42;82.54;99602.72;5042775;28;20037;-71
2023/08/09 03:57:21;;;;;;;474.10;443.07;;;;;;;16.45;82.63;99608.41;5043148;28;20516;-72
2023/08/09 03:59:47;;;;;;;706.88;656.90;;;;;;;16.50;82.65;99598.44;5025114;28;20274;-75
2023/08/09 04:02:13;;;;;;;897.97;827.70;;;;;;;16.53;82.61;99609.66;5043044;28;20049;-75
2023/08/09 04:04:38;;;;;;;843.08;780.85;;;;;;;16.58;82.19;99616.97;5043167;28;20075;-75
2023/08/09 04:07:04;;;;;;;779.83;723.17;;;;;;;16.64;82.52;99615.72;5043217;28;20041;-76
2023/08/09 04:09:30;;;;;;;806.40;747.03;;;;;;;16.66;81.86;99623.66;5042958;28;20059;-71
2023/08/09 04:11:55;;;;;;;829.50;765.95;;;;;;;16.68;81.97;99619.50;5042182;28;20075;-71
2023/08/09 04:14:21;;;;;;;865.00;799.40;;;;;;;16.72;81.23;99627.16;5042550;28;20409;-71
2023/08/09 04:16:46;;;;;;;808.47;749.90;;;;;;;16.69;81.70;99631.31;5042102;28;20040;-71
2023/08/09 04:19:11;;;;;;;722.00;668.80;;;;;;;16.65;81.87;99639.38;5043194;28;20025;-71
2023/08/09 04:21:37;;;;;;;716.10;664.22;;;;;;;16.69;81.70;99645.09;5042706;28;20293;-72
2023/08/09 04:24:03;;;;;;;653.55;607.05;;;;;;;16.66;81.69;99645.69;5042025;28;20036;-71
2023/08/09 04:26:29;;;;;;;898.03;828.88;;;;;;;16.66;82.17;99641.00;5042547;28;20033;-72
2023/08/09 04:28:55;;;;;;;836.22;771.28;;;;;;;16.71;81.48;99647.53;5042203;28;20040;-71
2023/08/09 04:31:20;;;;;;;848.47;784.65;;;;;;;16.73;81.29;99645.28;5042534;28;20497;-72
2023/08/09 04:33:49;;;;;;;822.40;759.67;;;;;;;16.77;81.17;99649.03;5041993;28;20417;-71
2023/08/09 04:36:16;;;;;;;1018.90;932.67;;;;;;;16.75;80.78;99643.03;5042528;28;20139;-71
2023/08/09 04:38:41;;;;;;;832.00;770.22;;;;;;;16.73;80.73;99650.78;5041900;28;20032;-71
2023/08/09 04:41:06;;;;;;;817.40;755.03;;;;;;;16.70;80.59;99646.69;5042123;28;20052;-71
2023/08/09 04:43:31;;;;;;;776.97;720.30;;;;;;;16.75;81.32;99654.03;5042219;28;20686;-72
2023/08/09 04:45:57;;;;;;;886.80;818.33;;;;;;;16.73;80.84;99654.34;5042475;28;20554;-71
2023/08/09 04:48:23;;;;;;;687.80;638.95;;;;;;;16.74;80.83;99658.72;5041842;28;20274;-71
2023/08/09 04:50:48;;;;;;;820.00;757.72;;;;;;;16.73;81.39;99662.59;5042588;28;20065;-71
2023/08/09 04:53:13;;;;;;;686.88;634.78;;;;;;;16.76;80.78;99661.19;5042407;28;20517;-72
2023/08/09 04:55:38;;;;;;;841.97;777.40;;;;;;;16.68;80.98;99666.28;5041261;28;20160;-71
2023/08/09 04:58:04;;;;;;;796.63;732.95;;;;;;;16.69;80.89;99665.16;5042118;28;20641;-71
2023/08/09 05:00:29;;;;;;;802.72;740.83;;;;;;;16.71;80.86;99664.84;5042049;28;20128;-71
2023/08/09 05:02:54;;;;;;;758.67;701.73;;;;;;;16.75;80.59;99665.03;5041662;28;20049;-71
2023/08/09 05:05:20;;;;;;;738.78;685.67;;;;;;;16.76;80.58;99664.72;5041514;28;20254;-71
2023/08/09 05:07:45;;;;;;;763.35;706.08;;;;;;;16.78;80.63;99676.25;5042164;28;20037;-71
2023/08/09 05:10:11;;;;;;;846.33;780.10;;;;;;;16.80;80.41;99670.47;5042190;28;20144;-71
2023/08/09 05:12:36;;;;;;;916.63;846.67;;;;;;;16.78;80.33;99676.25;5041779;28;20044;-71
2023/08/09 05:15:03;;;;;;;807.00;745.72;;;;;;;16.82;80.49;99681.94;5041697;28;20318;-71
2023/08/09 05:17:28;;;;;;;811.95;750.53;;;;;;;16.80;80.34;99678.72;5042142;28;20041;-73
2023/08/09 05:19:53;;;;;;;706.00;653.70;;;;;;;16.84;79.35;99679.69;5042248;28;20837;-73
2023/08/09 05:22:19;;;;;;;664.42;616.63;;;;;;;16.85;79.67;99681.34;5041874;28;20048;-71
2023/08/09 05:24:44;;;;;;;778.17;718.28;;;;;;;16.77;78.87;99685.66;5040941;28;20509;-72
2023/08/09 05:27:10;;;;;;;713.43;663.47;;;;;;;16.78;79.42;99686.47;5041094;28;20091;-71
2023/08/09 05:29:35;;;;;;;568.33;528.13;;;;;;;16.85;79.36;99692.34;5041937;28;20738;-72
2023/08/09 05:32:00;;;;;;;553.00;515.20;;;;;;;16.79;79.18;99696.34;5040105;28;20806;-72
2023/08/09 05:34:26;;;;;;;608.97;566.13;;;;;;;16.77;79.29;99695.84;5041354;28;20262;-72
2023/08/09 05:36:51;;;;;;;810.75;747.10;;;;;;;16.78;79.49;99691.97;5041784;28;20127;-71
2023/08/09 05:39:16;;;;;;;570.13;530.03;;;;;;;16.76;79.45;99702.47;5041761;28;20494;-72
2023/08/09 05:41:41;;;;;;;590.90;549.00;;;;;;;16.76;79.51;99700.50;5041427;28;20284;-72
2023/08/09 05:44:07;;;;;;;694.30;643.40;;;;;;;16.80;79.50;99700.75;5041498;28;20273;-72
2023/08/09 05:46:33;;;;;;;614.85;571.97;;;;;;;16.78;79.47;99702.97;5041456;28;20028;-72
2023/08/09 05:48:58;;;;;;;391.98;366.85;;;;;;;16.80;79.89;99707.03;5041564;28;20089;-72
2023/08/09 05:51:24;;;;;;;444.40;415.88;;;;;;;16.84;80.19;99707.22;5041441;28;20037;-72
2023/08/09 05:53:50;;;;;;;610.47;569.28;;;;;;;16.94;79.84;99713.66;5041433;28;20033;-72
2023/08/09 05:56:15;;;;;;;570.05;529.33;;;;;;;16.93;79.17;99721.09;5041928;28;20033;-71
2023/08/09 05:58:40;;;;;;;475.60;444.40;;;;;;;16.95;79.22;99729.03;5042196;28;20033;-71
2023/08/09 06:01:07;;;;;;;577.27;536.70;;;;;;;16.86;79.74;99726.22;5041805;28;20282;-72
2023/08/09 06:03:39;;;;;;;648.92;602.55;;;;;;;16.92;79.43;99725.78;5040963;28;20336;-71
2023/08/09 06:06:07;;;;;;;735.10;679.78;;;;;;;16.96;78.93;99736.19;5041413;28;20025;-71
2023/08/09 06:08:34;;;;;;;716.70;664.88;;;;;;;17.02;78.99;99730.22;5041739;28;20090;-71
2023/08/09 06:10:59;;;;;;;605.80;562.30;;;;;;;17.04;78.96;99738.22;5026111;28;20037;-71
2023/08/09 06:13:25;;;;;;;652.42;606.25;;;;;;;17.13;78.22;99730.88;5044078;28;20082;-72
2023/08/09 06:15:50;;;;;;;739.27;688.77;;;;;;;17.21;77.98;99736.75;5045116;28;20466;-71
2023/08/09 06:18:16;;;;;;;541.25;504.60;;;;;;;17.24;78.08;99741.66;5045187;28;20269;-72
2023/08/09 06:20:41;;;;;;;455.63;425.33;;;;;;;17.16;78.87;99745.97;5045522;28;20036;-76
2023/08/09 06:23:06;;;;;;;703.22;655.70;;;;;;;17.25;78.27;99748.78;5045521;28;20033;-76
2023/08/09 06:25:32;;;;;;;788.70;734.93;;;;;;;17.28;78.27;99753.69;5045580;28;21219;-76
2023/08/09 06:27:57;;;;;;;415.27;389.25;;;;;;;17.29;78.21;99749.78;5045704;28;20246;-76
2023/08/09 06:30:22;;;;;;;366.65;344.83;;;;;;;17.24;78.89;99760.94;5046442;28;20033;-75
2023/08/09 06:32:48;;;;;;;456.45;426.88;;;;;;;17.12;78.51;99764.19;5045191;28;20040;-76
2023/08/09 06:35:14;;;;;;;569.15;530.47;;;;;;;17.06;78.67;99768.19;5044175;28;20037;-75
2023/08/09 06:37:39;;;;;;;776.55;713.65;;;;;;;16.98;78.02;99778.00;5044579;28;20072;-75
2023/08/09 06:40:08;;;;;;;500.77;467.30;;;;;;;16.97;78.58;99768.09;5045259;28;20114;-76
2023/08/09 06:42:33;;;;;;;570.45;532.92;;;;;;;17.13;78.96;99780.44;5045088;28;20047;-75
2023/08/09 06:45:00;;;;;;;649.92;605.22;;;;;;;17.27;78.64;99780.41;5044334;28;20041;-75
2023/08/09 06:47:26;;;;;;;584.10;544.45;;;;;;;17.31;77.89;99775.09;5044941;28;20025;-75
2023/08/09 06:49:51;;;;;;;654.30;610.33;;;;;;;17.27;78.72;99779.59;5044394;28;20147;-74
2023/08/09 06:52:16;;;;;;;760.33;706.47;;;;;;;17.33;77.92;99778.34;5044544;28;20642;-75
2023/08/09 06:54:41;;;;;;;724.03;674.20;;;;;;;17.41;77.38;99785.06;5044626;28;20258;-75
2023/08/09 06:57:07;;;;;;;801.72;745.75;;;;;;;17.49;77.17;99786.28;5045121;28;21433;-74
2023/08/09 06:59:34;;;;;;;794.63;738.67;;;;;;;17.52;77.32;99782.88;5044733;28;20484;-74
2023/08/09 07:01:59;;;;;;;786.85;732.13;;;;;;;17.55;76.85;99790.56;5044286;28;20075;-74
2023/08/09 07:04:25;;;;;;;738.95;687.53;;;;;;;17.50;76.63;99787.91;5043827;28;20119;-75
2023/08/09 07:06:50;;;;;;;596.03;554.45;;;;;;;17.53;77.38;99789.22;5043493;28;20506;-74
2023/08/09 07:09:18;;;;;;;771.47;719.47;;;;;;;17.52;76.46;99788.41;5043456;28;20036;-74
2023/08/09 07:11:43;;;;;;;771.40;718.08;;;;;;;17.46;76.20;99787.72;5043960;28;20262;-74
2023/08/09 07:14:09;;;;;;;762.40;709.25;;;;;;;17.50;76.64;99793.41;5043778;28;20028;-73
2023/08/09 07:16:34;;;;;;;718.67;669.63;;;;;;;17.43;75.15;99798.53;5044363;28;20037;-74
2023/08/09 07:18:59;;;;;;;583.60;544.60;;;;;;;17.46;75.60;99804.25;5043147;28;20029;-75
2023/08/09 07:21:26;;;;;;;786.67;731.80;;;;;;;17.53;75.42;99809.34;5042558;28;20293;-74
2023/08/09 07:23:52;;;;;;;852.78;793.22;;;;;;;17.60;76.19;99814.41;5042623;28;20269;-75
2023/08/09 07:26:17;;;;;;;652.58;606.72;;;;;;;17.62;75.16;99818.50;5043945;28;20036;-75
2023/08/09 07:28:42;;;;;;;848.97;789.33;;;;;;;17.66;74.57;99824.19;5043126;28;20033;-75
2023/08/09 07:31:22;;;;;;;504.13;469.60;;;;;;;17.42;75.44;99818.94;5044027;28;20041;-73
2023/08/09 07:33:48;;;;;;;477.70;446.92;;;;;;;17.53;76.17;99825.06;5025510;28;20750;-73
2023/08/09 07:36:13;;;;;;;590.17;550.15;;;;;;;17.63;75.78;99830.34;5043757;28;20052;-74
2023/08/09 07:38:39;;;;;;;728.25;676.72;;;;;;;17.63;75.72;99835.84;5043556;28;20036;-73
2023/08/09 07:41:04;;;;;;;293.00;274.77;;;;;;;17.64;75.31;99831.13;5043451;28;20037;-72
2023/08/09 07:43:30;;;;;;;223.32;209.88;;;;;;;17.69;75.58;99836.53;5042895;28;20486;-73
2023/08/09 07:45:55;;;;;;;307.20;288.00;;;;;;;17.72;75.37;99841.41;5043110;28;20127;-73
2023/08/09 07:48:21;;;;;;;404.23;379.13;;;;;;;17.65;74.84;99841.88;5043476;28;20463;-73
2023/08/09 07:50:46;;;;;;;304.80;286.83;;;;;;;17.64;74.31;99837.47;5042708;28;20032;-74
2023/08/09 07:53:12;;;;;;;735.53;686.72;;;;;;;17.57;74.37;99839.84;5042959;28;20060;-74
2023/08/09 07:55:38;;;;;;;278.90;263.25;;;;;;;17.60;74.83;99848.31;5042298;28;20059;-72
2023/08/09 07:58:04;;;;;;;685.88;641.55;;;;;;;17.54;74.19;99838.50;5043113;28;20064;-71
2023/08/09 08:00:30;;;;;;;533.83;500.45;;;;;;;17.51;74.17;99839.16;5042909;28;20032;-72
2023/08/09 08:02:55;;;;;;;738.90;690.10;;;;;;;17.50;73.71;99843.84;5042209;28;20150;-73
2023/08/09 08:05:20;;;;;;;557.40;521.73;;;;;;;17.50;74.42;99849.34;5042368;28;20086;-73
2023/08/09 08:07:46;;;;;;;230.17;217.97;;;;;;;17.64;74.19;99854.00;5042604;28;20258;-73
2023/08/09 08:10:14;;;;;;;204.13;193.23;;;;;;;17.79;74.45;99866.63;5042659;28;20699;-72
2023/08/09 08:12:40;;;;;;;186.40;176.43;;;;;;;17.78;74.53;99865.00;5043263;28;20273;-72
2023/08/09 08:15:09;;;;;;;475.27;447.40;;;;;;;17.70;73.06;99868.47;5042335;28;20425;-72
2023/08/09 08:17:35;;;;;;;235.05;222.10;;;;;;;17.73;73.66;99863.19;5041782;28;20816;-74
2023/08/09 08:20:01;;;;;;;169.73;160.68;;;;;;;17.81;73.75;99869.06;5042095;28;20178;-73
2023/08/09 08:22:26;;;;;;;214.77;202.25;;;;;;;17.87;72.58;99861.50;5042522;28;20136;-72
2023/08/09 08:24:52;;;;;;;606.08;567.42;;;;;;;17.82;71.98;99867.94;5041966;28;20036;-71
2023/08/09 08:27:17;;;;;;;712.20;665.78;;;;;;;17.84;71.58;99865.69;5042415;28;20037;-72
2023/08/09 08:29:43;;;;;;;634.65;594.78;;;;;;;17.84;71.65;99874.78;5042000;28;20063;-71
2023/08/09 08:32:10;;;;;;;597.45;560.97;;;;;;;17.85;71.43;99873.66;5041555;28;20041;-71
2023/08/09 08:34:36;;;;;;;644.92;603.55;;;;;;;17.92;72.14;99883.44;5042264;28;20617;-72
2023/08/09 08:37:01;;;;;;;512.38;481.67;;;;;;;17.95;70.60;99880.06;5042369;28;20124;-71
2023/08/09 08:39:29;;;;;;;548.40;515.40;;;;;;;18.06;71.06;99877.88;5042732;28;20492;-73
2023/08/09 08:41:55;;;;;;;604.78;567.35;;;;;;;18.13;71.12;99878.25;5041748;28;20036;-73
2023/08/09 08:44:23;;;;;;;663.30;619.33;;;;;;;18.19;70.84;99878.97;5041823;28;20115;-72
2023/08/09 08:46:50;;;;;;;583.78;545.75;;;;;;;18.27;70.40;99875.44;5042364;28;20032;-72
2023/08/09 08:49:20;;;;;;;691.65;645.25;;;;;;;18.36;70.05;99866.41;5042538;28;20064;-71
2023/08/09 08:51:49;;;;;;;612.92;574.50;;;;;;;18.41;70.72;99869.03;5042003;28;20051;-71
2023/08/09 08:54:15;;;;;;;596.83;559.45;;;;;;;18.52;70.74;99869.59;5041957;28;20077;-71
2023/08/09 08:56:41;;;;;;;740.53;690.08;;;;;;;18.52;69.36;99864.06;5042184;28;20098;-71
2023/08/09 08:59:06;;;;;;;894.33;829.45;;;;;;;18.54;69.13;99870.91;5041600;28;20032;-70
2023/08/09 09:01:33;;;;;;;926.83;859.50;;;;;;;18.57;68.74;99871.41;5042660;28;20045;-71
2023/08/09 09:03:58;;;;;;;898.38;833.83;;;;;;;18.65;68.51;99873.41;5040796;28;20041;-71
2023/08/09 09:06:23;;;;;;;966.17;889.08;;;;;;;18.72;67.54;99876.50;5042035;28;20041;-72
2023/08/09 09:08:54;;;;;;;833.65;769.90;;;;;;;18.77;66.07;99876.34;5041485;28;20389;-72
2023/08/09 09:11:24;;;;;;;858.45;790.60;;;;;;;18.85;66.57;99876.72;5042089;28;20049;-71
2023/08/09 09:13:51;;;;;;;471.63;443.35;;;;;;;18.88;65.66;99881.59;5041476;28;20037;-70
2023/08/09 09:16:18;;;;;;;724.65;669.60;;;;;;;18.88;66.30;99893.47;5042051;28;20375;-71
2023/08/09 09:18:48;;;;;;;848.67;783.50;;;;;;;18.75;68.02;99889.66;5041672;28;20041;-71
2023/08/09 09:21:16;;;;;;;975.90;901.15;;;;;;;18.86;67.74;99894.91;5024012;28;20128;-71
2023/08/09 09:23:42;;;;;;;920.47;845.35;;;;;;;18.86;66.86;99892.16;5041132;28;20033;-71
2023/08/09 09:26:09;;;;;;;850.60;787.60;;;;;;;18.92;67.75;99898.34;5041870;28;20048;-71
2023/08/09 09:28:41;;;;;;;967.17;888.95;;;;;;;18.92;67.67;99893.66;5042308;28;20036;-71
2023/08/09 09:31:09;;;;;;;968.95;893.47;;;;;;;19.00;68.09;99890.09;5042023;28;20136;-72
2023/08/09 09:33:35;;;;;;;670.10;624.58;;;;;;;18.96;66.60;99897.41;5040892;28;20657;-71
2023/08/09 09:36:02;;;;;;;785.72;720.42;;;;;;;18.96;65.14;99893.81;5041197;28;20458;-71
2023/08/09 09:38:28;;;;;;;375.52;348.65;;;;;;;18.97;64.31;99895.47;5040988;28;20025;-72
2023/08/09 09:40:53;;;;;;;303.15;283.73;;;;;;;19.09;64.60;99897.63;5041423;28;20428;-72
2023/08/09 09:43:19;;;;;;;430.45;404.30;;;;;;;19.12;63.98;99902.50;5040324;28;20041;-71
2023/08/09 09:45:45;;;;;;;969.45;897.38;;;;;;;19.17;64.78;99904.34;5042611;28;20033;-71
2023/08/09 09:48:17;;;;;;;1020.45;944.20;;;;;;;19.33;63.81;99896.41;5045005;28;20036;-73
2023/08/09 09:50:43;;;;;;;338.92;321.27;;;;;;;19.47;64.35;99910.09;5045572;28;20044;-78
2023/08/09 09:53:11;;;;;;;839.60;759.15;;;;;;;19.51;63.68;99907.50;5045421;28;20508;-75
2023/08/09 09:55:37;;;;;;;854.53;792.55;;;;;;;19.62;64.70;99908.84;5045131;28;20041;-79
2023/08/09 09:58:02;;;;;;;1999.90;999.90;;;;;;;19.74;62.59;99910.16;5046439;28;20592;-79
2023/08/09 10:00:28;;;;;;;1775.72;841.85;;;;;;;19.80;60.72;99906.09;5047389;28;20044;-81
2023/08/09 10:02:55;;;;;;;1999.90;999.90;;;;;;;19.91;61.63;99921.22;5049392;28;20044;-79
2023/08/09 10:05:35;;;;;;;1999.90;999.90;;;;;;;20.06;61.99;99914.41;5045741;28;20112;-80
2023/08/09 10:08:02;;;;;;;1741.57;826.45;;;;;;;20.10;60.40;99922.06;5027945;28;20079;-81
2023/08/09 10:10:28;;;;;;;1999.90;999.90;;;;;;;20.14;61.37;99921.09;5045014;28;20024;-80
2023/08/09 10:12:54;;;;;;;1730.85;672.78;;;;;;;20.17;60.36;99928.75;5045789;28;20620;-81
2023/08/09 10:15:23;;;;;;;1999.90;999.90;;;;;;;20.28;61.01;99926.47;5045061;28;20037;-83
2023/08/09 10:17:54;;;;;;;556.67;349.98;;;;;;;20.23;58.56;99923.88;5045251;28;20045;-80
2023/08/09 10:20:22;;;;;;;204.15;168.18;;;;;;;20.30;57.45;99926.94;5046379;28;20100;-84
2023/08/09 10:22:48;;;;;;;8.80;5.25;;;;;;;20.33;57.80;99928.25;5046043;28;20041;-81
2023/08/09 10:25:14;;;;;;;10.43;5.30;;;;;;;20.24;57.76;99941.31;5044657;28;20033;-80
2023/08/09 10:27:45;;;;;;;8.68;4.97;;;;;;;20.30;58.67;99940.78;5045703;28;20041;-82
2023/08/09 10:30:13;;;;;;;9.98;6.20;;;;;;;20.30;57.37;99929.72;5046789;28;20295;-83
2023/08/09 10:32:56;;;;;;;7.80;4.25;;;;;;;20.40;56.67;99942.41;5046482;28;20041;-84
2023/08/09 10:35:44;;;;;;;9.10;4.65;;;;;;;20.45;56.58;99946.13;5044907;28;20036;-80
2023/08/09 10:38:13;;;;;;;11.32;4.78;;;;;;;20.57;58.23;99948.25;5032256;28;20063;-83
2023/08/09 10:40:41;;;;;;;9.32;5.05;;;;;;;20.71;58.46;99945.28;5044952;28;20080;-81
2023/08/09 10:43:08;;;;;;;8.85;4.22;;;;;;;20.84;56.86;99944.28;5043372;28;20033;-81
2023/08/09 10:45:34;;;;;;;8.43;4.30;;;;;;;20.82;57.00;99941.03;5045289;28;20037;-84
2023/08/09 10:48:17;;;;;;;7.80;4.65;;;;;;;20.88;56.46;99945.25;5046877;28;20029;-80
2023/08/09 10:50:43;;;;;;;9.03;4.93;;;;;;;20.91;57.38;99940.19;5045553;28;20180;-81
2023/08/09 10:53:08;;;;;;;6.90;3.42;;;;;;;21.01;57.11;99942.63;5045726;28;20549;-79
2023/08/09 10:55:34;;;;;;;9.50;5.10;;;;;;;20.93;54.80;99935.13;5029420;28;20037;-79
2023/08/09 10:58:00;;;;;;;7.57;3.33;;;;;;;21.00;54.18;99929.91;5047736;28;20685;-78